sensor_id;sensor_type;location;lat;lon;timestamp;pressure;altitude;pressure_sealevel;temperature;humidity
46015;BME280;36844;51.898;-0.874;2023-02-12T00:00:31;102619.00;;;19.65;
46015;BME280;36844;51.898;-0.874;2023-02-12T00:02:56;102619.72;;;19.62;
46015;BME280;36844;51.898;-0.874;2023-02-12T00:05:21;102614.22;;;19.58;
46015;BME280;36844;51.898;-0.874;2023-02-12T00:07:47;102616.50;;;19.56;
46015;BME280;36844;51.898;-0.874;2023-02-12T00:10:12;102617.22;;;19.53;
46015;BME280;36844;51.898;-0.874;2023-02-12T00:12:37;102619.44;;;19.51;
46015;BME280;36844;51.898;-0.874;2023-02-12T00:15:03;102612.06;;;19.48;
46015;BME280;36844;51.898;-0.874;2023-02-12T00:17:28;102615.47;;;19.45;
46015;BME280;36844;51.898;-0.874;2023-02-12T00:19:54;102614.59;;;19.41;
46015;BME280;36844;51.898;-0.874;2023-02-12T00:22:19;102615.31;;;19.38;
46015;BME280;36844;51.898;-0.874;2023-02-12T00:24:44;102610.63;;;19.35;
46015;BME280;36844;51.898;-0.874;2023-02-12T00:27:09;102611.31;;;19.32;
46015;BME280;36844;51.898;-0.874;2023-02-12T00:29:35;102607.38;;;19.30;
46015;BME280;36844;51.898;-0.874;2023-02-12T00:32:00;102608.09;;;19.27;
46015;BME280;36844;51.898;-0.874;2023-02-12T00:34:26;102607.66;;;19.25;
46015;BME280;36844;51.898;-0.874;2023-02-12T00:36:51;102611.06;;;19.22;
46015;BME280;36844;51.898;-0.874;2023-02-12T00:39:16;102621.78;;;19.18;
46015;BME280;36844;51.898;-0.874;2023-02-12T00:41:41;102607.84;;;19.16;
46015;BME280;36844;51.898;-0.874;2023-02-12T00:44:07;102603.91;;;19.14;
46015;BME280;36844;51.898;-0.874;2023-02-12T00:46:32;102603.50;;;19.12;
46015;BME280;36844;51.898;-0.874;2023-02-12T00:48:57;102609.63;;;19.09;
46015;BME280;36844;51.898;-0.874;2023-02-12T00:51:22;102606.03;;;19.05;
46015;BME280;36844;51.898;-0.874;2023-02-12T00:53:48;102614.47;;;19.03;
46015;BME280;36844;51.898;-0.874;2023-02-12T00:56:13;102621.38;;;19.01;
46015;BME280;36844;51.898;-0.874;2023-02-12T00:58:38;102622.06;;;18.98;
46015;BME280;36844;51.898;-0.874;2023-02-12T01:01:03;102622.41;;;18.96;
46015;BME280;36844;51.898;-0.874;2023-02-12T01:03:29;102621.19;;;18.94;
46015;BME280;36844;51.898;-0.874;2023-02-12T01:05:54;102628.06;;;18.91;
46015;BME280;36844;51.898;-0.874;2023-02-12T01:08:21;102632.25;;;18.89;
46015;BME280;36844;51.898;-0.874;2023-02-12T01:10:52;102631.00;;;18.86;
46015;BME280;36844;51.898;-0.874;2023-02-12T01:13:18;102624.41;;;18.84;
46015;BME280;36844;51.898;-0.874;2023-02-12T01:15:43;102616.63;;;18.82;
46015;BME280;36844;51.898;-0.874;2023-02-12T01:18:09;102616.22;;;18.80;
46015;BME280;36844;51.898;-0.874;2023-02-12T01:20:34;102616.91;;;18.77;
46015;BME280;36844;51.898;-0.874;2023-02-12T01:23:00;102620.75;;;18.76;
46015;BME280;36844;51.898;-0.874;2023-02-12T01:25:25;102616.84;;;18.73;
46015;BME280;36844;51.898;-0.874;2023-02-12T01:27:54;102608.25;;;18.71;
46015;BME280;36844;51.898;-0.874;2023-02-12T01:30:19;102614.03;;;18.70;
46015;BME280;36844;51.898;-0.874;2023-02-12T01:32:48;102606.59;;;18.67;
46015;BME280;36844;51.898;-0.874;2023-02-12T01:35:13;102605.06;;;18.66;
46015;BME280;36844;51.898;-0.874;2023-02-12T01:37:38;102605.38;;;18.64;
46015;BME280;36844;51.898;-0.874;2023-02-12T01:40:04;102611.13;;;18.63;
46015;BME280;36844;51.898;-0.874;2023-02-12T01:42:29;102600.69;;;18.61;
46015;BME280;36844;51.898;-0.874;2023-02-12T01:47:35;102608.69;;;18.58;
46015;BME280;36844;51.898;-0.874;2023-02-12T01:50:00;102608.25;;;18.56;
46015;BME280;36844;51.898;-0.874;2023-02-12T01:52:27;102609.41;;;18.55;
46015;BME280;36844;51.898;-0.874;2023-02-12T01:54:54;102607.81;;;18.54;
46015;BME280;36844;51.898;-0.874;2023-02-12T01:57:22;102605.47;;;18.52;
46015;BME280;36844;51.898;-0.874;2023-02-12T01:59:49;102613.13;;;18.50;
46015;BME280;36844;51.898;-0.874;2023-02-12T02:02:15;102605.38;;;18.49;
46015;BME280;36844;51.898;-0.874;2023-02-12T02:04:45;102605.69;;;18.47;
46015;BME280;36844;51.898;-0.874;2023-02-12T02:07:12;102606.03;;;18.46;
46015;BME280;36844;51.898;-0.874;2023-02-12T02:09:38;102601.78;;;18.45;
46015;BME280;36844;51.898;-0.874;2023-02-12T02:12:04;102595.94;;;18.43;
46015;BME280;36844;51.898;-0.874;2023-02-12T02:14:48;102602.81;;;18.40;
46015;BME280;36844;51.898;-0.874;2023-02-12T02:27:31;102609.94;;;18.33;
46015;BME280;36844;51.898;-0.874;2023-02-12T02:32:53;102602.53;;;18.30;
46015;BME280;36844;51.898;-0.874;2023-02-12T02:35:25;102606.34;;;18.29;
46015;BME280;36844;51.898;-0.874;2023-02-12T02:40:36;102601.66;;;18.26;
46015;BME280;36844;51.898;-0.874;2023-02-12T02:43:46;102606.63;;;18.24;
46015;BME280;36844;51.898;-0.874;2023-02-12T02:45:52;102605.84;;;18.23;
46015;BME280;36844;51.898;-0.874;2023-02-12T02:48:21;102600.75;;;18.22;
46015;BME280;36844;51.898;-0.874;2023-02-12T02:50:49;102594.56;;;18.21;
46015;BME280;36844;51.898;-0.874;2023-02-12T02:53:18;102599.16;;;18.21;
46015;BME280;36844;51.898;-0.874;2023-02-12T02:55:51;102596.06;;;18.19;
46015;BME280;36844;51.898;-0.874;2023-02-12T02:58:21;102592.91;;;18.17;
46015;BME280;36844;51.898;-0.874;2023-02-12T03:00:50;102598.31;;;18.17;
46015;BME280;36844;51.898;-0.874;2023-02-12T03:03:22;102592.47;;;18.15;
46015;BME280;36844;51.898;-0.874;2023-02-12T03:05:51;102590.13;;;18.13;
46015;BME280;36844;51.898;-0.874;2023-02-12T03:08:19;102582.38;;;18.12;
46015;BME280;36844;51.898;-0.874;2023-02-12T03:10:51;102579.69;;;18.12;
46015;BME280;36844;51.898;-0.874;2023-02-12T03:13:21;102582.69;;;18.10;
46015;BME280;36844;51.898;-0.874;2023-02-12T03:15:49;102591.16;;;18.09;
46015;BME280;36844;51.898;-0.874;2023-02-12T03:18:19;102586.88;;;18.08;
46015;BME280;36844;51.898;-0.874;2023-02-12T03:20:47;102582.59;;;18.07;
46015;BME280;36844;51.898;-0.874;2023-02-12T03:23:18;102581.84;;;18.06;
46015;BME280;36844;51.898;-0.874;2023-02-12T03:25:49;102583.75;;;18.06;
46015;BME280;36844;51.898;-0.874;2023-02-12T03:28:19;102584.09;;;18.04;
46015;BME280;36844;51.898;-0.874;2023-02-12T03:31:05;102579.00;;;18.03;
46015;BME280;36844;51.898;-0.874;2023-02-12T03:36:43;102577.00;;;18.00;
46015;BME280;36844;51.898;-0.874;2023-02-12T03:38:50;102587.00;;;17.99;
46015;BME280;36844;51.898;-0.874;2023-02-12T03:41:24;102587.34;;;17.98;
46015;BME280;36844;51.898;-0.874;2023-02-12T03:49:02;102585.34;;;17.95;
46015;BME280;36844;51.898;-0.874;2023-02-12T03:54:00;102588.41;;;17.93;
46015;BME280;36844;51.898;-0.874;2023-02-12T03:58:58;102588.75;;;17.92;
46015;BME280;36844;51.898;-0.874;2023-02-12T04:01:23;102589.84;;;17.91;
46015;BME280;36844;51.898;-0.874;2023-02-12T04:03:48;102591.75;;;17.90;
46015;BME280;36844;51.898;-0.874;2023-02-12T04:06:17;102595.59;;;17.89;
46015;BME280;36844;51.898;-0.874;2023-02-12T04:08:43;102591.31;;;17.88;
46015;BME280;36844;51.898;-0.874;2023-02-12T04:19:09;102606.63;;;17.84;
46015;BME280;36844;51.898;-0.874;2023-02-12T04:24:12;102591.91;;;17.82;
46015;BME280;36844;51.898;-0.874;2023-02-12T04:31:48;102600.66;;;17.78;
46015;BME280;36844;51.898;-0.874;2023-02-12T04:37:01;102591.66;;;17.74;
46015;BME280;36844;51.898;-0.874;2023-02-12T04:39:28;102590.13;;;17.73;
46015;BME280;36844;51.898;-0.874;2023-02-12T04:41:58;102587.41;;;17.73;
46015;BME280;36844;51.898;-0.874;2023-02-12T04:44:25;102592.81;;;17.73;
46015;BME280;36844;51.898;-0.874;2023-02-12T04:46:51;102586.97;;;17.71;
46015;BME280;36844;51.898;-0.874;2023-02-12T04:49:17;102592.34;;;17.71;
46015;BME280;36844;51.898;-0.874;2023-02-12T04:51:43;102588.09;;;17.70;
46015;BME280;36844;51.898;-0.874;2023-02-12T04:54:08;102590.00;;;17.70;
46015;BME280;36844;51.898;-0.874;2023-02-12T04:56:33;102599.25;;;17.69;
46015;BME280;36844;51.898;-0.874;2023-02-12T04:58:59;102602.25;;;17.67;
46015;BME280;36844;51.898;-0.874;2023-02-12T05:01:24;102599.56;;;17.67;
46015;BME280;36844;51.898;-0.874;2023-02-12T05:03:52;102600.69;;;17.66;
46015;BME280;36844;51.898;-0.874;2023-02-12T05:06:18;102599.91;;;17.66;
46015;BME280;36844;51.898;-0.874;2023-02-12T05:08:43;102601.81;;;17.65;
46015;BME280;36844;51.898;-0.874;2023-02-12T05:11:08;102604.84;;;17.64;
46015;BME280;36844;51.898;-0.874;2023-02-12T05:13:34;102600.56;;;17.63;
46015;BME280;36844;51.898;-0.874;2023-02-12T05:15:59;102604.03;;;17.63;
46015;BME280;36844;51.898;-0.874;2023-02-12T05:18:27;102597.09;;;17.62;
46015;BME280;36844;51.898;-0.874;2023-02-12T05:20:56;102599.34;;;17.60;
46015;BME280;36844;51.898;-0.874;2023-02-12T05:23:22;102594.75;;;17.61;
46015;BME280;36844;51.898;-0.874;2023-02-12T05:25:47;102588.91;;;17.59;
46015;BME280;36844;51.898;-0.874;2023-02-12T05:28:12;102595.06;;;17.59;
46015;BME280;36844;51.898;-0.874;2023-02-12T05:30:38;102593.53;;;17.58;
46015;BME280;36844;51.898;-0.874;2023-02-12T05:33:03;102594.63;;;17.57;
46015;BME280;36844;51.898;-0.874;2023-02-12T05:35:28;102592.25;;;17.56;
46015;BME280;36844;51.898;-0.874;2023-02-12T05:37:53;102583.38;;;17.55;
46015;BME280;36844;51.898;-0.874;2023-02-12T05:40:19;102587.25;;;17.54;
46015;BME280;36844;51.898;-0.874;2023-02-12T05:42:44;102592.63;;;17.54;
46015;BME280;36844;51.898;-0.874;2023-02-12T05:45:09;102591.06;;;17.53;
46015;BME280;36844;51.898;-0.874;2023-02-12T05:47:34;102591.38;;;17.52;
46015;BME280;36844;51.898;-0.874;2023-02-12T05:49:59;102585.19;;;17.51;
46015;BME280;36844;51.898;-0.874;2023-02-12T05:52:25;102590.56;;;17.51;
46015;BME280;36844;51.898;-0.874;2023-02-12T05:54:50;102589.03;;;17.50;
46015;BME280;36844;51.898;-0.874;2023-02-12T05:57:15;102584.75;;;17.49;
46015;BME280;36844;51.898;-0.874;2023-02-12T05:59:40;102585.88;;;17.48;
46015;BME280;36844;51.898;-0.874;2023-02-12T06:02:06;102577.00;;;17.48;
46015;BME280;36844;51.898;-0.874;2023-02-12T06:04:31;102584.34;;;17.47;
46015;BME280;36844;51.898;-0.874;2023-02-12T06:06:56;102582.38;;;17.48;
46015;BME280;36844;51.898;-0.874;2023-02-12T06:09:22;102570.88;;;17.47;
46015;BME280;36844;51.898;-0.874;2023-02-12T06:11:47;102571.50;;;17.44;
46015;BME280;36844;51.898;-0.874;2023-02-12T06:14:14;102571.50;;;17.44;
46015;BME280;36844;51.898;-0.874;2023-02-12T06:16:39;102570.69;;;17.44;
46015;BME280;36844;51.898;-0.874;2023-02-12T06:19:05;102569.19;;;17.43;
46015;BME280;36844;51.898;-0.874;2023-02-12T06:21:30;102561.41;;;17.41;
46015;BME280;36844;51.898;-0.874;2023-02-12T06:23:56;102566.00;;;17.41;
46015;BME280;36844;51.898;-0.874;2023-02-12T06:26:22;102564.44;;;17.40;
46015;BME280;36844;51.898;-0.874;2023-02-12T06:28:47;102569.84;;;17.40;
46015;BME280;36844;51.898;-0.874;2023-02-12T06:33:44;102566.38;;;17.39;
46015;BME280;36844;51.898;-0.874;2023-02-12T06:36:09;102572.06;;;17.38;
46015;BME280;36844;51.898;-0.874;2023-02-12T06:38:34;102572.06;;;17.38;
46015;BME280;36844;51.898;-0.874;2023-02-12T06:41:00;102567.78;;;17.37;
46015;BME280;36844;51.898;-0.874;2023-02-12T06:43:26;102568.16;;;17.35;
46015;BME280;36844;51.898;-0.874;2023-02-12T06:45:51;102568.16;;;17.35;
46015;BME280;36844;51.898;-0.874;2023-02-12T06:48:16;102570.88;;;17.35;
46015;BME280;36844;51.898;-0.874;2023-02-12T06:50:41;102569.69;;;17.36;
46015;BME280;36844;51.898;-0.874;2023-02-12T06:53:06;102565.47;;;17.35;
46015;BME280;36844;51.898;-0.874;2023-02-12T06:55:33;102564.31;;;17.36;
46015;BME280;36844;51.898;-0.874;2023-02-12T06:57:58;102570.50;;;17.37;
46015;BME280;36844;51.898;-0.874;2023-02-12T07:00:23;102571.28;;;17.37;
46015;BME280;36844;51.898;-0.874;2023-02-12T07:02:52;102578.25;;;17.38;
46015;BME280;36844;51.898;-0.874;2023-02-12T07:05:18;102577.91;;;17.40;
46015;BME280;36844;51.898;-0.874;2023-02-12T07:07:45;102582.97;;;17.41;
46015;BME280;36844;51.898;-0.874;2023-02-12T07:10:11;102586.88;;;17.44;
46015;BME280;36844;51.898;-0.874;2023-02-12T07:12:36;102590.84;;;17.46;
46015;BME280;36844;51.898;-0.874;2023-02-12T07:15:01;102582.38;;;17.48;
46015;BME280;36844;51.898;-0.874;2023-02-12T07:17:27;102580.97;;;17.50;
46015;BME280;36844;51.898;-0.874;2023-02-12T07:19:53;102585.66;;;17.53;
46015;BME280;36844;51.898;-0.874;2023-02-12T07:22:18;102590.34;;;17.56;
46015;BME280;36844;51.898;-0.874;2023-02-12T07:24:45;102586.97;;;17.59;
46015;BME280;36844;51.898;-0.874;2023-02-12T07:27:10;102585.19;;;17.63;
46015;BME280;36844;51.898;-0.874;2023-02-12T07:29:35;102591.47;;;17.67;
46015;BME280;36844;51.898;-0.874;2023-02-12T07:32:00;102593.50;;;17.70;
46015;BME280;36844;51.898;-0.874;2023-02-12T07:34:26;102592.47;;;17.75;
46015;BME280;36844;51.898;-0.874;2023-02-12T07:36:51;102591.47;;;17.80;
46015;BME280;36844;51.898;-0.874;2023-02-12T07:39:16;102597.75;;;17.84;
46015;BME280;36844;51.898;-0.874;2023-02-12T07:41:41;102594.00;;;17.88;
46015;BME280;36844;51.898;-0.874;2023-02-12T07:44:07;102603.78;;;17.93;
46015;BME280;36844;51.898;-0.874;2023-02-12T07:46:44;102597.69;;;17.96;
46015;BME280;36844;51.898;-0.874;2023-02-12T07:49:14;102597.78;;;17.99;
46015;BME280;36844;51.898;-0.874;2023-02-12T07:51:39;102603.28;;;18.03;
46015;BME280;36844;51.898;-0.874;2023-02-12T07:54:04;102599.91;;;18.06;
46015;BME280;36844;51.898;-0.874;2023-02-12T07:56:31;102600.38;;;18.08;
46015;BME280;36844;51.898;-0.874;2023-02-12T07:59:00;102606.66;;;18.12;
46015;BME280;36844;51.898;-0.874;2023-02-12T08:01:33;102605.97;;;18.15;
46015;BME280;36844;51.898;-0.874;2023-02-12T08:04:00;102610.94;;;18.13;
46015;BME280;36844;51.898;-0.874;2023-02-12T08:06:26;102596.09;;;18.07;
46015;BME280;36844;51.898;-0.874;2023-02-12T08:08:52;102602.53;;;18.02;
46015;BME280;36844;51.898;-0.874;2023-02-12T08:11:18;102609.38;;;18.00;
46015;BME280;36844;51.898;-0.874;2023-02-12T08:13:43;102619.06;;;18.01;
46015;BME280;36844;51.898;-0.874;2023-02-12T08:16:10;102616.34;;;18.01;
46015;BME280;36844;51.898;-0.874;2023-02-12T08:18:35;102622.53;;;18.01;
46015;BME280;36844;51.898;-0.874;2023-02-12T08:21:04;102617.91;;;18.02;
46015;BME280;36844;51.898;-0.874;2023-02-12T08:23:30;102614.06;;;18.03;
46015;BME280;36844;51.898;-0.874;2023-02-12T08:28:33;102618.34;;;18.04;
46015;BME280;36844;51.898;-0.874;2023-02-12T08:31:06;102617.25;;;18.05;
46015;BME280;36844;51.898;-0.874;2023-02-12T08:33:32;102613.41;;;18.06;
46015;BME280;36844;51.898;-0.874;2023-02-12T08:36:02;102621.94;;;18.08;
46015;BME280;36844;51.898;-0.874;2023-02-12T08:38:27;102620.03;;;18.08;
46015;BME280;36844;51.898;-0.874;2023-02-12T08:40:52;102620.03;;;18.08;
46015;BME280;36844;51.898;-0.874;2023-02-12T08:43:17;102623.53;;;18.09;
46015;BME280;36844;51.898;-0.874;2023-02-12T08:45:44;102623.16;;;18.10;
46015;BME280;36844;51.898;-0.874;2023-02-12T08:48:09;102621.25;;;18.11;
46015;BME280;36844;51.898;-0.874;2023-02-12T08:50:34;102610.47;;;18.11;
46015;BME280;36844;51.898;-0.874;2023-02-12T08:52:59;102615.84;;;18.11;
46015;BME280;36844;51.898;-0.874;2023-02-12T08:55:24;102621.25;;;18.11;
46015;BME280;36844;51.898;-0.874;2023-02-12T08:57:50;102609.66;;;18.10;
46015;BME280;36844;51.898;-0.874;2023-02-12T09:00:17;102609.66;;;18.10;
46015;BME280;36844;51.898;-0.874;2023-02-12T09:02:42;102611.94;;;18.08;
46015;BME280;36844;51.898;-0.874;2023-02-12T09:05:08;102615.44;;;18.09;
46015;BME280;36844;51.898;-0.874;2023-02-12T09:07:33;102618.13;;;18.09;
46015;BME280;36844;51.898;-0.874;2023-02-12T09:09:59;102622.75;;;18.08;
46015;BME280;36844;51.898;-0.874;2023-02-12T09:12:24;102621.94;;;18.08;
46015;BME280;36844;51.898;-0.874;2023-02-12T09:14:51;102621.94;;;18.08;
46015;BME280;36844;51.898;-0.874;2023-02-12T09:17:16;102621.16;;;18.07;
46015;BME280;36844;51.898;-0.874;2023-02-12T09:19:41;102625.75;;;18.07;
46015;BME280;36844;51.898;-0.874;2023-02-12T09:22:06;102631.94;;;18.07;
46015;BME280;36844;51.898;-0.874;2023-02-12T09:24:32;102624.19;;;18.06;
46015;BME280;36844;51.898;-0.874;2023-02-12T09:26:57;102631.16;;;18.07;
46015;BME280;36844;51.898;-0.874;2023-02-12T09:29:22;102624.19;;;18.06;
46015;BME280;36844;51.898;-0.874;2023-02-12T09:31:47;102626.91;;;18.06;
46015;BME280;36844;51.898;-0.874;2023-02-12T09:34:13;102623.41;;;18.05;
46015;BME280;36844;51.898;-0.874;2023-02-12T09:36:38;102621.06;;;18.04;
46015;BME280;36844;51.898;-0.874;2023-02-12T09:39:03;102620.25;;;18.03;
46015;BME280;36844;51.898;-0.874;2023-02-12T09:46:31;102618.69;;;18.02;
46015;BME280;36844;51.898;-0.874;2023-02-12T09:49:07;102617.91;;;18.02;
46015;BME280;36844;51.898;-0.874;2023-02-12T09:51:33;102614.44;;;18.01;
46015;BME280;36844;51.898;-0.874;2023-02-12T09:54:00;102609.38;;;18.00;
46015;BME280;36844;51.898;-0.874;2023-02-12T09:56:26;102614.78;;;18.00;
46015;BME280;36844;51.898;-0.874;2023-02-12T09:58:59;102620.16;;;18.00;
46015;BME280;36844;51.898;-0.874;2023-02-12T10:01:27;102614.78;;;18.00;
46015;BME280;36844;51.898;-0.874;2023-02-12T10:03:53;102605.47;;;17.97;
46015;BME280;36844;51.898;-0.874;2023-02-12T10:06:25;102608.94;;;17.98;
46015;BME280;36844;51.898;-0.874;2023-02-12T10:22:20;102611.88;;;17.93;
46015;BME280;36844;51.898;-0.874;2023-02-12T10:29:57;102619.50;;;17.91;
46015;BME280;36844;51.898;-0.874;2023-02-12T10:34:49;102617.63;;;17.91;
46015;BME280;36844;51.898;-0.874;2023-02-12T10:39:47;102620.75;;;17.93;
46015;BME280;36844;51.898;-0.874;2023-02-12T10:42:20;102616.13;;;17.94;
46015;BME280;36844;51.898;-0.874;2023-02-12T10:44:45;102613.13;;;17.95;
46015;BME280;36844;51.898;-0.874;2023-02-12T10:47:20;102608.94;;;17.98;
46015;BME280;36844;51.898;-0.874;2023-02-12T10:49:50;102619.06;;;18.01;
46015;BME280;36844;51.898;-0.874;2023-02-12T10:54:43;102609.16;;;18.05;
46015;BME280;36844;51.898;-0.874;2023-02-12T10:57:09;102605.75;;;18.08;
46015;BME280;36844;51.898;-0.874;2023-02-12T10:59:36;102605.06;;;18.11;
46015;BME280;36844;51.898;-0.874;2023-02-12T11:02:02;102609.00;;;18.13;
46015;BME280;36844;51.898;-0.874;2023-02-12T11:04:28;102607.88;;;18.14;
46015;BME280;36844;51.898;-0.874;2023-02-12T11:07:07;102607.97;;;18.18;
46015;BME280;36844;51.898;-0.874;2023-02-12T11:09:34;102611.13;;;18.20;
46015;BME280;36844;51.898;-0.874;2023-02-12T11:12:00;102604.56;;;18.21;
46015;BME280;36844;51.898;-0.874;2023-02-12T11:14:25;102607.75;;;18.23;
46015;BME280;36844;51.898;-0.874;2023-02-12T11:16:58;102604.69;;;18.24;
46015;BME280;36844;51.898;-0.874;2023-02-12T11:19:28;102606.25;;;18.25;
46015;BME280;36844;51.898;-0.874;2023-02-12T11:22:04;102605.94;;;18.27;
46015;BME280;36844;51.898;-0.874;2023-02-12T11:24:31;102602.13;;;18.28;
46015;BME280;36844;51.898;-0.874;2023-02-12T11:27:30;102605.56;;;18.28;
46015;BME280;36844;51.898;-0.874;2023-02-12T11:30:03;102600.94;;;18.29;
46015;BME280;36844;51.898;-0.874;2023-02-12T11:32:33;102607.13;;;18.29;
46015;BME280;36844;51.898;-0.874;2023-02-12T11:35:05;102601.75;;;18.29;
46015;BME280;36844;51.898;-0.874;2023-02-12T11:37:31;102601.75;;;18.29;
46015;BME280;36844;51.898;-0.874;2023-02-12T11:39:57;102602.84;;;18.28;
46015;BME280;36844;51.898;-0.874;2023-02-12T11:42:23;102598.63;;;18.27;
46015;BME280;36844;51.898;-0.874;2023-02-12T11:44:50;102595.53;;;18.29;
46015;BME280;36844;51.898;-0.874;2023-02-12T11:47:17;102596.34;;;18.29;
46015;BME280;36844;51.898;-0.874;2023-02-12T11:52:27;102593.22;;;18.27;
46015;BME280;36844;51.898;-0.874;2023-02-12T11:55:00;102588.63;;;18.28;
46015;BME280;36844;51.898;-0.874;2023-02-12T12:00:05;102587.84;;;18.27;
46015;BME280;36844;51.898;-0.874;2023-02-12T12:02:35;102586.25;;;18.26;
46015;BME280;36844;51.898;-0.874;2023-02-12T12:05:13;102583.56;;;18.26;
46015;BME280;36844;51.898;-0.874;2023-02-12T12:07:41;102584.66;;;18.25;
46015;BME280;36844;51.898;-0.874;2023-02-12T12:10:30;102579.25;;;18.25;
46015;BME280;36844;51.898;-0.874;2023-02-12T12:12:57;102582.34;;;18.24;
46015;BME280;36844;51.898;-0.874;2023-02-12T12:15:33;102573.47;;;18.23;
46015;BME280;36844;51.898;-0.874;2023-02-12T12:21:35;102566.78;;;18.21;
46015;BME280;36844;51.898;-0.874;2023-02-12T12:24:05;102572.19;;;18.21;
46015;BME280;36844;51.898;-0.874;2023-02-12T12:26:33;102565.28;;;18.20;
46015;BME280;36844;51.898;-0.874;2023-02-12T12:31:35;102569.50;;;18.21;
46015;BME280;36844;51.898;-0.874;2023-02-12T12:36:45;102562.56;;;18.20;
46015;BME280;36844;51.898;-0.874;2023-02-12T12:39:15;102560.66;;;18.20;
46015;BME280;36844;51.898;-0.874;2023-02-12T12:41:46;102561.41;;;18.21;
46015;BME280;36844;51.898;-0.874;2023-02-12T12:57:35;102535.31;;;18.25;
46015;BME280;36844;51.898;-0.874;2023-02-12T13:05:52;102535.78;;;18.27;
46015;BME280;36844;51.898;-0.874;2023-02-12T13:11:08;102531.59;;;18.29;
46015;BME280;36844;51.898;-0.874;2023-02-12T13:13:32;102521.59;;;18.30;
46015;BME280;36844;51.898;-0.874;2023-02-12T13:16:03;102526.66;;;18.31;
46015;BME280;36844;51.898;-0.874;2023-02-12T13:18:46;102521.25;;;18.31;
46015;BME280;36844;51.898;-0.874;2023-02-12T13:23:58;102518.56;;;18.31;
46015;BME280;36844;51.898;-0.874;2023-02-12T13:29:05;102512.78;;;18.33;
46015;BME280;36844;51.898;-0.874;2023-02-12T13:31:32;102520.09;;;18.32;
46015;BME280;36844;51.898;-0.874;2023-02-12T13:34:01;102517.41;;;18.32;
46015;BME280;36844;51.898;-0.874;2023-02-12T13:36:27;102517.06;;;18.34;
46015;BME280;36844;51.898;-0.874;2023-02-12T13:38:55;102516.28;;;18.33;
46015;BME280;36844;51.898;-0.874;2023-02-12T13:41:22;102500.88;;;18.34;
46015;BME280;36844;51.898;-0.874;2023-02-12T13:44:22;102508.97;;;18.34;
46015;BME280;36844;51.898;-0.874;2023-02-12T13:46:49;102511.69;;;18.34;
46015;BME280;36844;51.898;-0.874;2023-02-12T13:49:20;102505.50;;;18.33;
46015;BME280;36844;51.898;-0.874;2023-02-12T13:54:33;102496.59;;;18.33;
46015;BME280;36844;51.898;-0.874;2023-02-12T13:57:00;102501.22;;;18.32;
46015;BME280;36844;51.898;-0.874;2023-02-12T14:07:19;102490.78;;;18.31;
46015;BME280;36844;51.898;-0.874;2023-02-12T14:12:14;102484.25;;;18.32;
46015;BME280;36844;51.898;-0.874;2023-02-12T14:14:44;102486.19;;;18.31;
46015;BME280;36844;51.898;-0.874;2023-02-12T14:27:58;102482.53;;;18.24;
46015;BME280;36844;51.898;-0.874;2023-02-12T14:30:39;102474.34;;;18.20;
46015;BME280;36844;51.898;-0.874;2023-02-12T14:35:33;102480.38;;;18.17;
46015;BME280;36844;51.898;-0.874;2023-02-12T14:37:59;102473.78;;;18.15;
46015;BME280;36844;51.898;-0.874;2023-02-12T14:45:48;102468.22;;;18.08;
46015;BME280;36844;51.898;-0.874;2023-02-12T14:50:57;102469.22;;;18.03;
46015;BME280;36844;51.898;-0.874;2023-02-12T14:53:29;102460.72;;;18.01;
46015;BME280;36844;51.898;-0.874;2023-02-12T14:55:55;102463.75;;;18.00;
46015;BME280;36844;51.898;-0.874;2023-02-12T14:58:21;102457.91;;;17.98;
46015;BME280;36844;51.898;-0.874;2023-02-12T15:00:49;102464.44;;;17.97;
46015;BME280;36844;51.898;-0.874;2023-02-12T15:03:16;102447.47;;;17.96;
46015;BME280;36844;51.898;-0.874;2023-02-12T15:08:27;102453.22;;;17.95;
46015;BME280;36844;51.898;-0.874;2023-02-12T15:10:58;102459.72;;;17.94;
46015;BME280;36844;51.898;-0.874;2023-02-12T15:13:28;102453.22;;;17.95;
46015;BME280;36844;51.898;-0.874;2023-02-12T15:16:07;102455.13;;;17.94;
46015;BME280;36844;51.898;-0.874;2023-02-12T15:18:53;102446.69;;;17.96;
46015;BME280;36844;51.898;-0.874;2023-02-12T15:21:24;102447.47;;;17.96;
46015;BME280;36844;51.898;-0.874;2023-02-12T15:23:59;102448.28;;;17.97;
46015;BME280;36844;51.898;-0.874;2023-02-12T15:26:24;102442.53;;;17.98;
46015;BME280;36844;51.898;-0.874;2023-02-12T15:28:51;102439.47;;;18.00;
46015;BME280;36844;51.898;-0.874;2023-02-12T15:31:18;102433.75;;;18.01;
46015;BME280;36844;51.898;-0.874;2023-02-12T15:33:51;102432.63;;;18.02;
46015;BME280;36844;51.898;-0.874;2023-02-12T15:36:17;102433.84;;;18.05;
46015;BME280;36844;51.898;-0.874;2023-02-12T15:38:44;102431.56;;;18.07;
46015;BME280;36844;51.898;-0.874;2023-02-12T15:43:55;102431.66;;;18.10;
46015;BME280;36844;51.898;-0.874;2023-02-12T15:46:21;102427.84;;;18.11;
46015;BME280;36844;51.898;-0.874;2023-02-12T15:48:46;102437.13;;;18.14;
46015;BME280;36844;51.898;-0.874;2023-02-12T15:53:39;102430.22;;;18.13;
46015;BME280;36844;51.898;-0.874;2023-02-12T15:56:04;102425.94;;;18.12;
46015;BME280;36844;51.898;-0.874;2023-02-12T16:01:17;102421.66;;;18.11;
46015;BME280;36844;51.898;-0.874;2023-02-12T16:03:43;102423.94;;;18.09;
46015;BME280;36844;51.898;-0.874;2023-02-12T16:06:12;102421.25;;;18.09;
46015;BME280;36844;51.898;-0.874;2023-02-12T16:08:41;102426.25;;;18.10;
46015;BME280;36844;51.898;-0.874;2023-02-12T16:11:07;102423.94;;;18.09;
46015;BME280;36844;51.898;-0.874;2023-02-12T16:13:43;102429.34;;;18.09;
46015;BME280;36844;51.898;-0.874;2023-02-12T16:18:38;102426.63;;;18.09;
46015;BME280;36844;51.898;-0.874;2023-02-12T16:21:17;102426.63;;;18.09;
46015;BME280;36844;51.898;-0.874;2023-02-12T16:23:45;102426.63;;;18.09;
46015;BME280;36844;51.898;-0.874;2023-02-12T16:26:18;102433.22;;;18.11;
46015;BME280;36844;51.898;-0.874;2023-02-12T16:28:45;102425.94;;;18.12;